Newburgh, IN (47629)

7:00 AM CDT on April 27, 2015 (GMT -0500)
0.5 Miles West Of Sharon School | | Change Station
CLOSE
Current Station
Personal Weather Station
Location: Newburgh, IN
Elevation: 435 ft
Nearby Weather Stations

Elev 435 ft 37.95 °N, 87.39 °W | Updated 29 seconds ago

Clear
Clear
45.0 °F
Feels Like 45 °F
N
2.4
Wind Variable Wind from NE
Gusts 2.5 mph

Today
High -- | Low -- °F
--% Chance of Precip.
Yesterday
High -- | Low -- °F
Precip. -- in
5:58 AM 7:36 PM
Waxing Gibbous, 64% visible
Pressure 30.03 in
Visibility 10.0 miles
Clouds Clear
Windchill 45 °F
Dew Point 34 °F
Humidity 64%
Rainfall 0.00 in
Snow Depth Not available.
UV 0 out of 12
Pollen 9.30 out of 12
Air Quality Not available.
Flu Activity Local Activity
METAR KEVV 271154Z 01007KT 10SM CLR 07/00 A3003 RMK AO2 SLP168 T00720000 10094 20061 53015

More Conditions Fewer Conditions

Pressure 30.03 in
Visibility 10.0 miles
Clouds Clear
Windchill 45 °F
Dew Point 34 °F
Humidity 64%
Rainfall 0.00 in
Snow Depth Not available.
UV 0 out of 12
Pollen 9.30 out of 12
Air Quality Not available.
Flu Activity Local Activity
METAR KEVV 271154Z 01007KT 10SM CLR 07/00 A3003 RMK AO2 SLP168 T00720000 10094 20061 53015

More Conditions Fewer Conditions

10-Day Weather Forecast

Almanac

Astronomy

Apr. 27, 2015 Rise Set
Actual Time
Civil Twilight
Nautical Twilight
Astronomical Twilight
Moon
Length of Visible Light
Length of Day
Tomorrow will be .
, % of the Moon is Illuminated

Today's Extremes

State Highs State Lows

Community

WunderPhotos

Upload Photos

1,817,284 photos uploaded!

WunderBlogs® & News

Nearby

Air Quality

  Air Quality AQ Index Pollutant
Not available.

Snow Depth

Station Depth Elevation

Earthquake Activity

City Distance Mag. Time & Date
Minimum magnitude displayed is 2.5.

Coastal Water Temperatures

Place Temperature

Stations

Nearby Weather Stations

Station Location Temp. Windchill Dew Point Humidity Wind Precip. Elev Updated Type